sensor_id;sensor_type;location;lat;lon;timestamp;P1;durP1;ratioP1;P2;durP2;ratioP2
48524;SDS011;34316;51.514;-0.178;2024-02-04T00:01:34;6.65;;;3.80;;
48524;SDS011;34316;51.514;-0.178;2024-02-04T00:03:36;4.95;;;3.55;;
48524;SDS011;34316;51.514;-0.178;2024-02-04T00:05:38;5.90;;;3.67;;
48524;SDS011;34316;51.514;-0.178;2024-02-04T00:07:40;6.97;;;4.00;;
48524;SDS011;34316;51.514;-0.178;2024-02-04T00:09:41;5.68;;;3.95;;
48524;SDS011;34316;51.514;-0.178;2024-02-04T00:11:45;5.72;;;4.10;;
48524;SDS011;34316;51.514;-0.178;2024-02-04T00:13:47;5.50;;;4.25;;
48524;SDS011;34316;51.514;-0.178;2024-02-04T00:15:49;6.55;;;4.15;;
48524;SDS011;34316;51.514;-0.178;2024-02-04T00:17:51;7.15;;;4.18;;
48524;SDS011;34316;51.514;-0.178;2024-02-04T00:19:52;6.55;;;4.18;;
48524;SDS011;34316;51.514;-0.178;2024-02-04T00:21:54;7.35;;;4.40;;
48524;SDS011;34316;51.514;-0.178;2024-02-04T00:23:56;6.22;;;4.30;;
48524;SDS011;34316;51.514;-0.178;2024-02-04T00:25:58;6.10;;;4.28;;
48524;SDS011;34316;51.514;-0.178;2024-02-04T00:28:00;7.93;;;4.97;;
48524;SDS011;34316;51.514;-0.178;2024-02-04T00:30:02;6.90;;;3.85;;
48524;SDS011;34316;51.514;-0.178;2024-02-04T00:32:04;5.93;;;3.97;;
48524;SDS011;34316;51.514;-0.178;2024-02-04T00:36:29;7.32;;;4.30;;
48524;SDS011;34316;51.514;-0.178;2024-02-04T00:38:31;6.32;;;4.15;;
48524;SDS011;34316;51.514;-0.178;2024-02-04T00:40:32;6.28;;;3.92;;
48524;SDS011;34316;51.514;-0.178;2024-02-04T00:42:39;6.55;;;4.25;;
48524;SDS011;34316;51.514;-0.178;2024-02-04T00:44:40;6.22;;;4.05;;
48524;SDS011;34316;51.514;-0.178;2024-02-04T00:46:42;5.80;;;4.50;;
48524;SDS011;34316;51.514;-0.178;2024-02-04T00:48:45;5.00;;;3.78;;
48524;SDS011;34316;51.514;-0.178;2024-02-04T00:50:47;5.47;;;3.88;;
48524;SDS011;34316;51.514;-0.178;2024-02-04T00:52:48;5.53;;;3.83;;
48524;SDS011;34316;51.514;-0.178;2024-02-04T00:54:50;5.47;;;4.18;;
48524;SDS011;34316;51.514;-0.178;2024-02-04T00:56:52;6.10;;;3.97;;
48524;SDS011;34316;51.514;-0.178;2024-02-04T00:58:54;5.05;;;3.92;;
48524;SDS011;34316;51.514;-0.178;2024-02-04T01:00:56;6.72;;;4.30;;
48524;SDS011;34316;51.514;-0.178;2024-02-04T01:02:58;6.07;;;4.53;;
48524;SDS011;34316;51.514;-0.178;2024-02-04T01:05:00;5.20;;;4.05;;
48524;SDS011;34316;51.514;-0.178;2024-02-04T01:07:02;7.47;;;3.97;;
48524;SDS011;34316;51.514;-0.178;2024-02-04T01:09:03;6.15;;;4.15;;
48524;SDS011;34316;51.514;-0.178;2024-02-04T01:11:05;5.93;;;4.07;;
48524;SDS011;34316;51.514;-0.178;2024-02-04T01:13:07;5.35;;;3.42;;
48524;SDS011;34316;51.514;-0.178;2024-02-04T01:15:09;6.38;;;3.80;;
48524;SDS011;34316;51.514;-0.178;2024-02-04T01:17:11;5.05;;;3.67;;
48524;SDS011;34316;51.514;-0.178;2024-02-04T01:19:13;5.00;;;3.38;;
48524;SDS011;34316;51.514;-0.178;2024-02-04T01:21:15;5.65;;;4.07;;
48524;SDS011;34316;51.514;-0.178;2024-02-04T01:23:16;5.32;;;3.95;;
48524;SDS011;34316;51.514;-0.178;2024-02-04T01:25:19;5.17;;;3.63;;
48524;SDS011;34316;51.514;-0.178;2024-02-04T01:27:21;6.13;;;3.75;;
48524;SDS011;34316;51.514;-0.178;2024-02-04T01:29:24;5.25;;;3.70;;
48524;SDS011;34316;51.514;-0.178;2024-02-04T01:31:25;6.47;;;3.92;;
48524;SDS011;34316;51.514;-0.178;2024-02-04T01:33:27;5.28;;;4.10;;
48524;SDS011;34316;51.514;-0.178;2024-02-04T01:35:29;6.65;;;3.90;;
48524;SDS011;34316;51.514;-0.178;2024-02-04T01:37:31;6.95;;;3.80;;
48524;SDS011;34316;51.514;-0.178;2024-02-04T01:39:33;6.63;;;3.63;;
48524;SDS011;34316;51.514;-0.178;2024-02-04T01:41:35;4.93;;;3.78;;
48524;SDS011;34316;51.514;-0.178;2024-02-04T01:43:37;6.30;;;3.55;;
48524;SDS011;34316;51.514;-0.178;2024-02-04T01:45:39;5.63;;;3.80;;
48524;SDS011;34316;51.514;-0.178;2024-02-04T01:47:41;5.30;;;3.40;;
48524;SDS011;34316;51.514;-0.178;2024-02-04T01:49:43;7.80;;;3.70;;
48524;SDS011;34316;51.514;-0.178;2024-02-04T01:51:45;7.25;;;3.95;;
48524;SDS011;34316;51.514;-0.178;2024-02-04T01:53:47;6.72;;;3.30;;
48524;SDS011;34316;51.514;-0.178;2024-02-04T01:55:50;5.20;;;4.03;;
48524;SDS011;34316;51.514;-0.178;2024-02-04T01:57:52;4.85;;;3.33;;
48524;SDS011;34316;51.514;-0.178;2024-02-04T01:59:54;6.80;;;3.53;;
48524;SDS011;34316;51.514;-0.178;2024-02-04T02:02:01;6.22;;;3.60;;
48524;SDS011;34316;51.514;-0.178;2024-02-04T02:04:04;4.60;;;3.10;;
48524;SDS011;34316;51.514;-0.178;2024-02-04T02:06:07;6.07;;;3.67;;
48524;SDS011;34316;51.514;-0.178;2024-02-04T02:08:09;5.13;;;3.58;;
48524;SDS011;34316;51.514;-0.178;2024-02-04T02:10:12;6.97;;;3.88;;
48524;SDS011;34316;51.514;-0.178;2024-02-04T02:12:19;6.03;;;3.60;;
48524;SDS011;34316;51.514;-0.178;2024-02-04T02:14:26;8.18;;;3.88;;
48524;SDS011;34316;51.514;-0.178;2024-02-04T02:16:30;7.50;;;3.72;;
48524;SDS011;34316;51.514;-0.178;2024-02-04T02:18:36;5.70;;;3.72;;
48524;SDS011;34316;51.514;-0.178;2024-02-04T02:23:26;5.20;;;3.40;;
48524;SDS011;34316;51.514;-0.178;2024-02-04T02:25:32;5.60;;;3.38;;
48524;SDS011;34316;51.514;-0.178;2024-02-04T02:27:40;5.53;;;3.40;;
48524;SDS011;34316;51.514;-0.178;2024-02-04T02:29:50;6.70;;;4.20;;
48524;SDS011;34316;51.514;-0.178;2024-02-04T02:31:52;4.47;;;3.45;;
48524;SDS011;34316;51.514;-0.178;2024-02-04T02:33:54;4.85;;;3.30;;
48524;SDS011;34316;51.514;-0.178;2024-02-04T02:35:56;5.20;;;3.40;;
48524;SDS011;34316;51.514;-0.178;2024-02-04T02:38:03;3.88;;;3.00;;
48524;SDS011;34316;51.514;-0.178;2024-02-04T02:42:17;4.97;;;3.22;;
48524;SDS011;34316;51.514;-0.178;2024-02-04T02:44:20;5.57;;;3.50;;
48524;SDS011;34316;51.514;-0.178;2024-02-04T02:46:22;5.10;;;3.60;;
48524;SDS011;34316;51.514;-0.178;2024-02-04T02:48:25;5.95;;;3.67;;
48524;SDS011;34316;51.514;-0.178;2024-02-04T02:50:27;8.13;;;4.05;;
48524;SDS011;34316;51.514;-0.178;2024-02-04T02:52:29;6.90;;;3.50;;
48524;SDS011;34316;51.514;-0.178;2024-02-04T02:54:31;5.40;;;3.72;;
48524;SDS011;34316;51.514;-0.178;2024-02-04T02:56:33;5.65;;;4.00;;
48524;SDS011;34316;51.514;-0.178;2024-02-04T02:58:35;5.53;;;3.53;;
48524;SDS011;34316;51.514;-0.178;2024-02-04T03:00:37;5.20;;;3.65;;
48524;SDS011;34316;51.514;-0.178;2024-02-04T03:02:39;5.00;;;3.70;;
48524;SDS011;34316;51.514;-0.178;2024-02-04T03:04:41;6.82;;;4.00;;
48524;SDS011;34316;51.514;-0.178;2024-02-04T03:06:42;5.78;;;3.85;;
48524;SDS011;34316;51.514;-0.178;2024-02-04T03:08:44;5.20;;;3.25;;
48524;SDS011;34316;51.514;-0.178;2024-02-04T03:10:46;5.03;;;3.28;;
48524;SDS011;34316;51.514;-0.178;2024-02-04T03:12:48;5.03;;;3.42;;
48524;SDS011;34316;51.514;-0.178;2024-02-04T03:14:50;5.82;;;3.55;;
48524;SDS011;34316;51.514;-0.178;2024-02-04T03:16:52;5.20;;;3.45;;
48524;SDS011;34316;51.514;-0.178;2024-02-04T03:18:55;5.97;;;3.10;;
48524;SDS011;34316;51.514;-0.178;2024-02-04T03:20:57;5.43;;;3.13;;
48524;SDS011;34316;51.514;-0.178;2024-02-04T03:22:59;5.20;;;3.30;;
48524;SDS011;34316;51.514;-0.178;2024-02-04T03:25:01;5.03;;;3.53;;
48524;SDS011;34316;51.514;-0.178;2024-02-04T03:27:03;5.07;;;3.35;;
48524;SDS011;34316;51.514;-0.178;2024-02-04T03:29:05;4.80;;;3.10;;
48524;SDS011;34316;51.514;-0.178;2024-02-04T03:31:07;4.68;;;2.97;;
48524;SDS011;34316;51.514;-0.178;2024-02-04T03:33:08;4.95;;;3.30;;
48524;SDS011;34316;51.514;-0.178;2024-02-04T03:35:11;4.78;;;3.58;;
48524;SDS011;34316;51.514;-0.178;2024-02-04T03:37:12;4.38;;;3.28;;
48524;SDS011;34316;51.514;-0.178;2024-02-04T03:39:14;4.90;;;3.08;;
48524;SDS011;34316;51.514;-0.178;2024-02-04T03:41:16;4.10;;;2.95;;
48524;SDS011;34316;51.514;-0.178;2024-02-04T03:43:18;6.00;;;3.38;;
48524;SDS011;34316;51.514;-0.178;2024-02-04T03:45:20;6.07;;;3.85;;
48524;SDS011;34316;51.514;-0.178;2024-02-04T03:47:22;5.85;;;3.20;;
48524;SDS011;34316;51.514;-0.178;2024-02-04T03:49:23;4.53;;;3.35;;
48524;SDS011;34316;51.514;-0.178;2024-02-04T03:51:25;5.07;;;2.80;;
48524;SDS011;34316;51.514;-0.178;2024-02-04T03:53:27;4.90;;;3.22;;
48524;SDS011;34316;51.514;-0.178;2024-02-04T03:55:29;4.05;;;2.97;;
48524;SDS011;34316;51.514;-0.178;2024-02-04T03:57:32;4.50;;;2.90;;
48524;SDS011;34316;51.514;-0.178;2024-02-04T03:59:34;5.35;;;3.17;;
48524;SDS011;34316;51.514;-0.178;2024-02-04T04:01:36;5.38;;;3.08;;
48524;SDS011;34316;51.514;-0.178;2024-02-04T04:03:41;4.47;;;3.20;;
48524;SDS011;34316;51.514;-0.178;2024-02-04T04:05:44;6.30;;;3.13;;
48524;SDS011;34316;51.514;-0.178;2024-02-04T04:07:45;3.58;;;2.63;;
48524;SDS011;34316;51.514;-0.178;2024-02-04T04:09:47;6.00;;;2.97;;
48524;SDS011;34316;51.514;-0.178;2024-02-04T04:11:49;5.70;;;2.80;;
48524;SDS011;34316;51.514;-0.178;2024-02-04T04:13:51;4.38;;;2.90;;
48524;SDS011;34316;51.514;-0.178;2024-02-04T04:15:53;5.28;;;3.13;;
48524;SDS011;34316;51.514;-0.178;2024-02-04T04:17:55;5.85;;;3.35;;
48524;SDS011;34316;51.514;-0.178;2024-02-04T04:19:57;4.43;;;3.00;;
48524;SDS011;34316;51.514;-0.178;2024-02-04T04:21:59;3.97;;;2.70;;
48524;SDS011;34316;51.514;-0.178;2024-02-04T04:26:04;3.78;;;2.95;;
48524;SDS011;34316;51.514;-0.178;2024-02-04T04:28:07;5.28;;;3.10;;
48524;SDS011;34316;51.514;-0.178;2024-02-04T04:30:09;4.70;;;3.33;;
48524;SDS011;34316;51.514;-0.178;2024-02-04T04:32:11;4.15;;;3.00;;
48524;SDS011;34316;51.514;-0.178;2024-02-04T04:34:13;4.30;;;3.05;;
48524;SDS011;34316;51.514;-0.178;2024-02-04T04:36:15;6.03;;;3.10;;
48524;SDS011;34316;51.514;-0.178;2024-02-04T04:38:17;3.75;;;2.40;;
48524;SDS011;34316;51.514;-0.178;2024-02-04T04:40:18;4.22;;;3.30;;
48524;SDS011;34316;51.514;-0.178;2024-02-04T04:42:20;5.50;;;3.00;;
48524;SDS011;34316;51.514;-0.178;2024-02-04T04:44:22;5.20;;;3.70;;
48524;SDS011;34316;51.514;-0.178;2024-02-04T04:46:24;6.35;;;3.10;;
48524;SDS011;34316;51.514;-0.178;2024-02-04T04:48:26;6.28;;;3.28;;
48524;SDS011;34316;51.514;-0.178;2024-02-04T04:50:28;4.03;;;2.90;;
48524;SDS011;34316;51.514;-0.178;2024-02-04T04:52:30;3.72;;;2.70;;
48524;SDS011;34316;51.514;-0.178;2024-02-04T04:54:31;4.80;;;2.80;;
48524;SDS011;34316;51.514;-0.178;2024-02-04T04:56:40;5.47;;;2.65;;
48524;SDS011;34316;51.514;-0.178;2024-02-04T04:58:43;5.38;;;2.92;;
48524;SDS011;34316;51.514;-0.178;2024-02-04T05:00:45;5.13;;;3.15;;
48524;SDS011;34316;51.514;-0.178;2024-02-04T05:02:47;4.70;;;3.08;;
48524;SDS011;34316;51.514;-0.178;2024-02-04T05:04:49;4.35;;;2.85;;
48524;SDS011;34316;51.514;-0.178;2024-02-04T05:06:51;4.15;;;2.80;;
48524;SDS011;34316;51.514;-0.178;2024-02-04T05:08:53;5.10;;;3.00;;
48524;SDS011;34316;51.514;-0.178;2024-02-04T05:10:55;8.27;;;2.95;;
48524;SDS011;34316;51.514;-0.178;2024-02-04T05:12:57;4.18;;;2.88;;
48524;SDS011;34316;51.514;-0.178;2024-02-04T05:14:59;3.22;;;2.78;;
48524;SDS011;34316;51.514;-0.178;2024-02-04T05:17:01;4.35;;;2.80;;
48524;SDS011;34316;51.514;-0.178;2024-02-04T05:19:03;3.65;;;2.80;;
48524;SDS011;34316;51.514;-0.178;2024-02-04T05:21:04;3.75;;;2.70;;
48524;SDS011;34316;51.514;-0.178;2024-02-04T05:23:06;3.95;;;2.78;;
48524;SDS011;34316;51.514;-0.178;2024-02-04T05:25:09;4.25;;;2.83;;
48524;SDS011;34316;51.514;-0.178;2024-02-04T05:27:11;4.10;;;2.70;;
48524;SDS011;34316;51.514;-0.178;2024-02-04T05:29:13;5.30;;;2.72;;
48524;SDS011;34316;51.514;-0.178;2024-02-04T05:31:14;4.32;;;2.90;;
48524;SDS011;34316;51.514;-0.178;2024-02-04T05:33:16;3.20;;;2.63;;
48524;SDS011;34316;51.514;-0.178;2024-02-04T05:35:18;4.00;;;2.70;;
48524;SDS011;34316;51.514;-0.178;2024-02-04T05:37:20;4.55;;;3.03;;
48524;SDS011;34316;51.514;-0.178;2024-02-04T05:39:23;8.15;;;3.53;;
48524;SDS011;34316;51.514;-0.178;2024-02-04T05:41:25;5.20;;;3.10;;
48524;SDS011;34316;51.514;-0.178;2024-02-04T05:43:27;4.25;;;3.10;;
48524;SDS011;34316;51.514;-0.178;2024-02-04T05:45:29;4.63;;;3.35;;
48524;SDS011;34316;51.514;-0.178;2024-02-04T05:47:31;4.95;;;3.10;;
48524;SDS011;34316;51.514;-0.178;2024-02-04T05:49:32;4.95;;;3.08;;
48524;SDS011;34316;51.514;-0.178;2024-02-04T05:51:41;6.45;;;3.30;;
48524;SDS011;34316;51.514;-0.178;2024-02-04T05:53:43;4.63;;;3.35;;
48524;SDS011;34316;51.514;-0.178;2024-02-04T05:55:46;4.70;;;2.90;;
48524;SDS011;34316;51.514;-0.178;2024-02-04T05:57:48;5.33;;;3.17;;
48524;SDS011;34316;51.514;-0.178;2024-02-04T05:59:50;3.85;;;2.90;;
48524;SDS011;34316;51.514;-0.178;2024-02-04T06:01:53;5.32;;;2.90;;
48524;SDS011;34316;51.514;-0.178;2024-02-04T06:03:55;5.72;;;3.08;;
48524;SDS011;34316;51.514;-0.178;2024-02-04T06:05:57;5.80;;;2.90;;
48524;SDS011;34316;51.514;-0.178;2024-02-04T06:07:59;4.95;;;3.05;;
48524;SDS011;34316;51.514;-0.178;2024-02-04T06:10:01;5.70;;;3.15;;
48524;SDS011;34316;51.514;-0.178;2024-02-04T06:12:05;3.70;;;3.08;;
48524;SDS011;34316;51.514;-0.178;2024-02-04T06:14:07;4.95;;;3.22;;
48524;SDS011;34316;51.514;-0.178;2024-02-04T06:16:09;5.07;;;3.33;;
48524;SDS011;34316;51.514;-0.178;2024-02-04T06:20:15;5.63;;;3.53;;
48524;SDS011;34316;51.514;-0.178;2024-02-04T06:22:16;5.93;;;3.30;;
48524;SDS011;34316;51.514;-0.178;2024-02-04T06:24:18;5.07;;;3.33;;
48524;SDS011;34316;51.514;-0.178;2024-02-04T06:26:21;4.63;;;3.23;;
48524;SDS011;34316;51.514;-0.178;2024-02-04T06:28:23;4.97;;;3.30;;
48524;SDS011;34316;51.514;-0.178;2024-02-04T06:30:25;4.82;;;3.05;;
48524;SDS011;34316;51.514;-0.178;2024-02-04T06:32:27;4.65;;;3.45;;
48524;SDS011;34316;51.514;-0.178;2024-02-04T06:34:29;4.72;;;3.13;;
48524;SDS011;34316;51.514;-0.178;2024-02-04T06:36:31;4.03;;;3.22;;
48524;SDS011;34316;51.514;-0.178;2024-02-04T06:38:33;5.60;;;3.55;;
48524;SDS011;34316;51.514;-0.178;2024-02-04T06:40:34;6.15;;;3.22;;
48524;SDS011;34316;51.514;-0.178;2024-02-04T06:42:36;5.07;;;3.53;;
48524;SDS011;34316;51.514;-0.178;2024-02-04T06:44:38;4.10;;;3.17;;
48524;SDS011;34316;51.514;-0.178;2024-02-04T06:46:40;3.97;;;3.13;;
48524;SDS011;34316;51.514;-0.178;2024-02-04T06:48:41;4.82;;;3.60;;
48524;SDS011;34316;51.514;-0.178;2024-02-04T06:50:43;5.07;;;3.60;;
48524;SDS011;34316;51.514;-0.178;2024-02-04T06:52:47;5.78;;;3.90;;
48524;SDS011;34316;51.514;-0.178;2024-02-04T06:54:48;5.80;;;3.50;;
48524;SDS011;34316;51.514;-0.178;2024-02-04T06:56:51;4.43;;;3.20;;
48524;SDS011;34316;51.514;-0.178;2024-02-04T06:58:56;4.65;;;3.25;;
48524;SDS011;34316;51.514;-0.178;2024-02-04T07:00:58;7.22;;;3.28;;
48524;SDS011;34316;51.514;-0.178;2024-02-04T07:03:00;4.40;;;3.17;;
48524;SDS011;34316;51.514;-0.178;2024-02-04T07:05:02;4.75;;;3.60;;
48524;SDS011;34316;51.514;-0.178;2024-02-04T07:07:05;5.93;;;3.17;;
48524;SDS011;34316;51.514;-0.178;2024-02-04T07:09:07;4.65;;;3.28;;
48524;SDS011;34316;51.514;-0.178;2024-02-04T07:11:09;5.40;;;3.13;;
48524;SDS011;34316;51.514;-0.178;2024-02-04T07:13:10;5.07;;;3.15;;
48524;SDS011;34316;51.514;-0.178;2024-02-04T07:15:13;7.68;;;3.63;;
48524;SDS011;34316;51.514;-0.178;2024-02-04T07:17:16;5.07;;;3.15;;
48524;SDS011;34316;51.514;-0.178;2024-02-04T07:19:17;3.60;;;2.90;;
48524;SDS011;34316;51.514;-0.178;2024-02-04T07:21:19;4.45;;;3.00;;
48524;SDS011;34316;51.514;-0.178;2024-02-04T07:23:21;4.05;;;2.88;;
48524;SDS011;34316;51.514;-0.178;2024-02-04T07:25:23;5.82;;;3.13;;
48524;SDS011;34316;51.514;-0.178;2024-02-04T07:27:25;6.97;;;3.33;;
48524;SDS011;34316;51.514;-0.178;2024-02-04T07:29:27;6.25;;;3.05;;
48524;SDS011;34316;51.514;-0.178;2024-02-04T07:31:28;6.40;;;3.38;;
48524;SDS011;34316;51.514;-0.178;2024-02-04T07:33:30;6.85;;;3.25;;
48524;SDS011;34316;51.514;-0.178;2024-02-04T07:35:33;3.97;;;2.97;;
48524;SDS011;34316;51.514;-0.178;2024-02-04T07:37:35;4.03;;;2.92;;
48524;SDS011;34316;51.514;-0.178;2024-02-04T07:39:37;7.43;;;3.45;;
48524;SDS011;34316;51.514;-0.178;2024-02-04T07:41:39;5.97;;;3.00;;
48524;SDS011;34316;51.514;-0.178;2024-02-04T07:43:41;6.95;;;3.28;;
48524;SDS011;34316;51.514;-0.178;2024-02-04T07:45:43;5.78;;;2.97;;
48524;SDS011;34316;51.514;-0.178;2024-02-04T07:47:45;8.27;;;3.30;;
48524;SDS011;34316;51.514;-0.178;2024-02-04T07:49:47;3.85;;;2.92;;
48524;SDS011;34316;51.514;-0.178;2024-02-04T07:51:49;6.72;;;3.10;;
48524;SDS011;34316;51.514;-0.178;2024-02-04T07:53:51;8.48;;;3.30;;
48524;SDS011;34316;51.514;-0.178;2024-02-04T07:55:53;4.55;;;2.80;;
48524;SDS011;34316;51.514;-0.178;2024-02-04T07:57:55;4.82;;;3.28;;
48524;SDS011;34316;51.514;-0.178;2024-02-04T07:59:57;3.55;;;2.63;;
48524;SDS011;34316;51.514;-0.178;2024-02-04T08:02:02;4.93;;;3.13;;
48524;SDS011;34316;51.514;-0.178;2024-02-04T08:04:04;6.43;;;2.70;;
48524;SDS011;34316;51.514;-0.178;2024-02-04T08:06:08;3.80;;;2.72;;
48524;SDS011;34316;51.514;-0.178;2024-02-04T08:08:10;5.78;;;2.88;;
48524;SDS011;34316;51.514;-0.178;2024-02-04T08:10:11;5.78;;;2.85;;
48524;SDS011;34316;51.514;-0.178;2024-02-04T08:12:14;4.20;;;2.55;;
48524;SDS011;34316;51.514;-0.178;2024-02-04T08:14:15;3.63;;;2.45;;
48524;SDS011;34316;51.514;-0.178;2024-02-04T08:16:18;5.40;;;2.60;;
48524;SDS011;34316;51.514;-0.178;2024-02-04T08:18:21;6.32;;;3.17;;
48524;SDS011;34316;51.514;-0.178;2024-02-04T08:20:23;4.25;;;2.83;;
48524;SDS011;34316;51.514;-0.178;2024-02-04T08:22:25;4.05;;;2.10;;
48524;SDS011;34316;51.514;-0.178;2024-02-04T08:24:27;5.90;;;2.38;;
48524;SDS011;34316;51.514;-0.178;2024-02-04T08:26:31;5.32;;;2.78;;
48524;SDS011;34316;51.514;-0.178;2024-02-04T08:28:32;4.75;;;2.80;;
48524;SDS011;34316;51.514;-0.178;2024-02-04T08:30:34;10.40;;;3.10;;
48524;SDS011;34316;51.514;-0.178;2024-02-04T08:32:36;5.18;;;2.80;;
48524;SDS011;34316;51.514;-0.178;2024-02-04T08:34:38;5.47;;;3.28;;
48524;SDS011;34316;51.514;-0.178;2024-02-04T08:36:40;4.50;;;2.10;;
48524;SDS011;34316;51.514;-0.178;2024-02-04T08:38:42;3.78;;;2.20;;
48524;SDS011;34316;51.514;-0.178;2024-02-04T08:40:44;3.30;;;1.98;;
48524;SDS011;34316;51.514;-0.178;2024-02-04T08:42:46;4.93;;;2.00;;
48524;SDS011;34316;51.514;-0.178;2024-02-04T08:44:48;2.88;;;1.80;;
48524;SDS011;34316;51.514;-0.178;2024-02-04T08:46:50;5.07;;;2.15;;
48524;SDS011;34316;51.514;-0.178;2024-02-04T08:48:52;3.47;;;2.25;;
48524;SDS011;34316;51.514;-0.178;2024-02-04T08:50:54;9.82;;;3.60;;
48524;SDS011;34316;51.514;-0.178;2024-02-04T08:52:56;3.13;;;2.20;;
48524;SDS011;34316;51.514;-0.178;2024-02-04T08:54:58;4.78;;;2.95;;
48524;SDS011;34316;51.514;-0.178;2024-02-04T08:57:01;7.35;;;3.15;;
48524;SDS011;34316;51.514;-0.178;2024-02-04T08:59:03;5.78;;;2.45;;
48524;SDS011;34316;51.514;-0.178;2024-02-04T09:03:09;6.75;;;2.10;;
48524;SDS011;34316;51.514;-0.178;2024-02-04T09:05:10;3.88;;;2.22;;
48524;SDS011;34316;51.514;-0.178;2024-02-04T09:07:12;6.80;;;2.20;;
48524;SDS011;34316;51.514;-0.178;2024-02-04T09:09:14;5.25;;;2.28;;
48524;SDS011;34316;51.514;-0.178;2024-02-04T09:11:16;4.32;;;2.28;;
48524;SDS011;34316;51.514;-0.178;2024-02-04T09:15:22;4.88;;;2.15;;
48524;SDS011;34316;51.514;-0.178;2024-02-04T09:17:24;3.67;;;2.58;;
48524;SDS011;34316;51.514;-0.178;2024-02-04T09:19:25;6.45;;;2.30;;
48524;SDS011;34316;51.514;-0.178;2024-02-04T09:21:27;3.70;;;2.22;;
48524;SDS011;34316;51.514;-0.178;2024-02-04T09:23:30;7.03;;;2.42;;
48524;SDS011;34316;51.514;-0.178;2024-02-04T09:25:31;4.05;;;2.10;;
48524;SDS011;34316;51.514;-0.178;2024-02-04T09:27:33;4.72;;;2.33;;
48524;SDS011;34316;51.514;-0.178;2024-02-04T09:29:36;4.15;;;2.30;;
48524;SDS011;34316;51.514;-0.178;2024-02-04T09:31:37;4.95;;;2.42;;
48524;SDS011;34316;51.514;-0.178;2024-02-04T09:33:39;7.32;;;2.58;;
48524;SDS011;34316;51.514;-0.178;2024-02-04T09:35:42;4.47;;;2.50;;
48524;SDS011;34316;51.514;-0.178;2024-02-04T09:37:45;4.67;;;2.63;;
48524;SDS011;34316;51.514;-0.178;2024-02-04T09:39:47;6.47;;;2.20;;
48524;SDS011;34316;51.514;-0.178;2024-02-04T09:41:49;6.95;;;2.25;;
48524;SDS011;34316;51.514;-0.178;2024-02-04T09:43:51;3.88;;;2.58;;
48524;SDS011;34316;51.514;-0.178;2024-02-04T09:45:54;7.57;;;2.72;;
48524;SDS011;34316;51.514;-0.178;2024-02-04T09:47:56;5.82;;;2.70;;
48524;SDS011;34316;51.514;-0.178;2024-02-04T09:49:58;4.68;;;2.60;;
48524;SDS011;34316;51.514;-0.178;2024-02-04T09:52:01;6.50;;;2.40;;
48524;SDS011;34316;51.514;-0.178;2024-02-04T09:54:10;6.03;;;2.50;;
48524;SDS011;34316;51.514;-0.178;2024-02-04T09:56:12;4.50;;;2.60;;
48524;SDS011;34316;51.514;-0.178;2024-02-04T09:58:19;8.55;;;2.90;;
48524;SDS011;34316;51.514;-0.178;2024-02-04T10:00:21;12.45;;;2.70;;
48524;SDS011;34316;51.514;-0.178;2024-02-04T10:02:23;5.30;;;2.40;;
48524;SDS011;34316;51.514;-0.178;2024-02-04T10:04:26;4.03;;;2.17;;
48524;SDS011;34316;51.514;-0.178;2024-02-04T10:06:28;7.50;;;2.78;;
48524;SDS011;34316;51.514;-0.178;2024-02-04T10:08:30;8.40;;;2.60;;
48524;SDS011;34316;51.514;-0.178;2024-02-04T10:10:32;5.55;;;2.72;;
48524;SDS011;34316;51.514;-0.178;2024-02-04T10:12:34;6.95;;;3.03;;
48524;SDS011;34316;51.514;-0.178;2024-02-04T10:14:37;3.87;;;1.77;;
48524;SDS011;34316;51.514;-0.178;2024-02-04T10:16:39;7.80;;;2.28;;
48524;SDS011;34316;51.514;-0.178;2024-02-04T10:18:42;4.80;;;1.77;;
48524;SDS011;34316;51.514;-0.178;2024-02-04T10:20:45;3.90;;;2.05;;
48524;SDS011;34316;51.514;-0.178;2024-02-04T10:22:47;3.97;;;2.10;;
48524;SDS011;34316;51.514;-0.178;2024-02-04T10:24:51;5.72;;;2.30;;
48524;SDS011;34316;51.514;-0.178;2024-02-04T10:26:56;3.85;;;1.95;;
48524;SDS011;34316;51.514;-0.178;2024-02-04T10:28:58;5.20;;;2.10;;
48524;SDS011;34316;51.514;-0.178;2024-02-04T10:31:00;4.22;;;1.88;;
48524;SDS011;34316;51.514;-0.178;2024-02-04T10:33:02;3.25;;;1.90;;
48524;SDS011;34316;51.514;-0.178;2024-02-04T10:35:04;4.93;;;2.42;;
48524;SDS011;34316;51.514;-0.178;2024-02-04T10:37:06;3.40;;;2.00;;
48524;SDS011;34316;51.514;-0.178;2024-02-04T10:39:08;3.25;;;1.90;;
48524;SDS011;34316;51.514;-0.178;2024-02-04T10:41:12;6.03;;;2.30;;
48524;SDS011;34316;51.514;-0.178;2024-02-04T10:43:16;4.97;;;2.03;;
48524;SDS011;34316;51.514;-0.178;2024-02-04T10:45:18;7.22;;;2.17;;
48524;SDS011;34316;51.514;-0.178;2024-02-04T10:47:26;4.40;;;1.95;;
48524;SDS011;34316;51.514;-0.178;2024-02-04T10:49:34;4.47;;;2.15;;
48524;SDS011;34316;51.514;-0.178;2024-02-04T10:51:39;5.07;;;1.80;;
48524;SDS011;34316;51.514;-0.178;2024-02-04T10:53:41;4.03;;;1.80;;
48524;SDS011;34316;51.514;-0.178;2024-02-04T10:55:46;2.92;;;1.90;;
48524;SDS011;34316;51.514;-0.178;2024-02-04T10:57:48;5.40;;;2.45;;
48524;SDS011;34316;51.514;-0.178;2024-02-04T10:59:50;5.75;;;1.85;;
48524;SDS011;34316;51.514;-0.178;2024-02-04T11:01:52;2.95;;;1.88;;
48524;SDS011;34316;51.514;-0.178;2024-02-04T11:03:54;3.88;;;2.17;;
48524;SDS011;34316;51.514;-0.178;2024-02-04T11:05:57;2.20;;;1.60;;
48524;SDS011;34316;51.514;-0.178;2024-02-04T11:07:59;3.90;;;2.03;;
48524;SDS011;34316;51.514;-0.178;2024-02-04T11:10:01;2.90;;;1.98;;
48524;SDS011;34316;51.514;-0.178;2024-02-04T11:12:04;2.65;;;1.88;;
48524;SDS011;34316;51.514;-0.178;2024-02-04T11:14:16;2.50;;;1.50;;
48524;SDS011;34316;51.514;-0.178;2024-02-04T11:19:08;4.95;;;2.33;;
48524;SDS011;34316;51.514;-0.178;2024-02-04T11:23:30;2.75;;;1.70;;
48524;SDS011;34316;51.514;-0.178;2024-02-04T11:25:42;3.60;;;1.95;;
48524;SDS011;34316;51.514;-0.178;2024-02-04T11:27:46;3.22;;;1.90;;
48524;SDS011;34316;51.514;-0.178;2024-02-04T11:29:49;4.53;;;2.00;;
48524;SDS011;34316;51.514;-0.178;2024-02-04T11:31:52;3.58;;;1.60;;
48524;SDS011;34316;51.514;-0.178;2024-02-04T11:33:57;3.08;;;1.80;;
48524;SDS011;34316;51.514;-0.178;2024-02-04T11:38:05;4.93;;;2.20;;
48524;SDS011;34316;51.514;-0.178;2024-02-04T11:40:07;4.03;;;2.05;;
48524;SDS011;34316;51.514;-0.178;2024-02-04T11:42:15;5.72;;;2.60;;
48524;SDS011;34316;51.514;-0.178;2024-02-04T11:44:21;3.17;;;1.92;;
48524;SDS011;34316;51.514;-0.178;2024-02-04T11:46:27;4.43;;;1.80;;
48524;SDS011;34316;51.514;-0.178;2024-02-04T11:48:29;2.80;;;1.90;;
48524;SDS011;34316;51.514;-0.178;2024-02-04T11:50:36;5.47;;;1.50;;
48524;SDS011;34316;51.514;-0.178;2024-02-04T11:52:39;2.33;;;1.60;;
48524;SDS011;34316;51.514;-0.178;2024-02-04T11:54:42;3.05;;;1.85;;
48524;SDS011;34316;51.514;-0.178;2024-02-04T11:56:45;3.17;;;1.90;;
48524;SDS011;34316;51.514;-0.178;2024-02-04T11:58:47;2.55;;;1.70;;
48524;SDS011;34316;51.514;-0.178;2024-02-04T12:00:51;3.22;;;1.85;;
48524;SDS011;34316;51.514;-0.178;2024-02-04T12:03:04;7.90;;;2.33;;
48524;SDS011;34316;51.514;-0.178;2024-02-04T12:05:07;3.85;;;1.85;;
48524;SDS011;34316;51.514;-0.178;2024-02-04T12:07:10;3.28;;;1.70;;
48524;SDS011;34316;51.514;-0.178;2024-02-04T12:09:12;4.47;;;2.03;;
48524;SDS011;34316;51.514;-0.178;2024-02-04T12:11:15;2.47;;;1.50;;
48524;SDS011;34316;51.514;-0.178;2024-02-04T12:13:17;3.20;;;1.70;;
48524;SDS011;34316;51.514;-0.178;2024-02-04T12:15:20;3.60;;;1.90;;
48524;SDS011;34316;51.514;-0.178;2024-02-04T12:17:22;3.17;;;1.80;;
48524;SDS011;34316;51.514;-0.178;2024-02-04T12:19:24;2.22;;;1.65;;
48524;SDS011;34316;51.514;-0.178;2024-02-04T12:21:26;2.70;;;1.88;;
48524;SDS011;34316;51.514;-0.178;2024-02-04T12:23:28;4.43;;;2.40;;
48524;SDS011;34316;51.514;-0.178;2024-02-04T12:25:30;3.30;;;1.98;;
48524;SDS011;34316;51.514;-0.178;2024-02-04T12:27:33;2.90;;;2.05;;
48524;SDS011;34316;51.514;-0.178;2024-02-04T12:29:35;3.88;;;1.70;;